sensor_id;sensor_type;location;lat;lon;timestamp;temperature;humidity
17039;DHT22;8636;55.750;13.202;2023-05-14T00:00:43;10.40;99.90
17039;DHT22;8636;55.750;13.202;2023-05-14T00:03:12;10.40;99.90
17039;DHT22;8636;55.750;13.202;2023-05-14T00:05:41;10.30;99.90
17039;DHT22;8636;55.750;13.202;2023-05-14T00:08:15;10.40;99.90
17039;DHT22;8636;55.750;13.202;2023-05-14T00:10:44;10.30;99.90
17039;DHT22;8636;55.750;13.202;2023-05-14T00:13:19;10.20;99.90
17039;DHT22;8636;55.750;13.202;2023-05-14T00:15:47;10.30;99.90
17039;DHT22;8636;55.750;13.202;2023-05-14T00:18:21;10.20;99.90
17039;DHT22;8636;55.750;13.202;2023-05-14T00:20:56;10.20;99.90
17039;DHT22;8636;55.750;13.202;2023-05-14T00:23:30;10.20;99.90
17039;DHT22;8636;55.750;13.202;2023-05-14T00:25:59;10.30;99.90
17039;DHT22;8636;55.750;13.202;2023-05-14T00:28:27;10.20;99.90
17039;DHT22;8636;55.750;13.202;2023-05-14T00:31:01;10.20;99.90
17039;DHT22;8636;55.750;13.202;2023-05-14T00:33:29;10.20;99.90
17039;DHT22;8636;55.750;13.202;2023-05-14T00:36:03;10.20;99.90
17039;DHT22;8636;55.750;13.202;2023-05-14T00:38:31;10.20;99.90
17039;DHT22;8636;55.750;13.202;2023-05-14T00:41:13;10.10;99.90
17039;DHT22;8636;55.750;13.202;2023-05-14T00:43:41;10.10;99.90
17039;DHT22;8636;55.750;13.202;2023-05-14T00:46:15;10.00;99.90
17039;DHT22;8636;55.750;13.202;2023-05-14T00:48:43;10.00;99.90
17039;DHT22;8636;55.750;13.202;2023-05-14T00:51:11;9.80;99.90
17039;DHT22;8636;55.750;13.202;2023-05-14T00:53:46;9.80;99.90
17039;DHT22;8636;55.750;13.202;2023-05-14T00:56:16;9.80;99.90
17039;DHT22;8636;55.750;13.202;2023-05-14T00:58:51;9.80;99.90
17039;DHT22;8636;55.750;13.202;2023-05-14T01:01:19;9.80;99.90
17039;DHT22;8636;55.750;13.202;2023-05-14T01:03:53;9.90;99.90
17039;DHT22;8636;55.750;13.202;2023-05-14T01:06:29;9.90;99.90
17039;DHT22;8636;55.750;13.202;2023-05-14T01:09:13;9.80;99.90
17039;DHT22;8636;55.750;13.202;2023-05-14T01:11:54;9.80;99.90
17039;DHT22;8636;55.750;13.202;2023-05-14T01:14:37;9.90;99.90
17039;DHT22;8636;55.750;13.202;2023-05-14T01:17:09;9.80;99.90
17039;DHT22;8636;55.750;13.202;2023-05-14T01:19:45;9.80;99.90
17039;DHT22;8636;55.750;13.202;2023-05-14T01:22:15;9.90;99.90
17039;DHT22;8636;55.750;13.202;2023-05-14T01:24:43;9.90;99.90
17039;DHT22;8636;55.750;13.202;2023-05-14T01:27:24;10.10;99.90
17039;DHT22;8636;55.750;13.202;2023-05-14T01:29:58;10.20;99.90
17039;DHT22;8636;55.750;13.202;2023-05-14T01:32:37;10.20;99.90
17039;DHT22;8636;55.750;13.202;2023-05-14T01:35:07;10.20;99.90
17039;DHT22;8636;55.750;13.202;2023-05-14T01:37:44;10.10;99.90
17039;DHT22;8636;55.750;13.202;2023-05-14T01:40:12;10.00;99.90
17039;DHT22;8636;55.750;13.202;2023-05-14T01:43:01;10.10;99.90
17039;DHT22;8636;55.750;13.202;2023-05-14T01:45:31;10.20;99.90
17039;DHT22;8636;55.750;13.202;2023-05-14T01:48:08;10.10;99.90
17039;DHT22;8636;55.750;13.202;2023-05-14T01:50:36;10.20;99.90
17039;DHT22;8636;55.750;13.202;2023-05-14T01:53:06;10.30;99.90
17039;DHT22;8636;55.750;13.202;2023-05-14T01:55:40;10.30;99.90
17039;DHT22;8636;55.750;13.202;2023-05-14T01:58:08;10.30;99.90
17039;DHT22;8636;55.750;13.202;2023-05-14T02:00:42;10.20;99.90
17039;DHT22;8636;55.750;13.202;2023-05-14T02:03:10;10.30;99.90
17039;DHT22;8636;55.750;13.202;2023-05-14T02:05:44;10.30;99.90
17039;DHT22;8636;55.750;13.202;2023-05-14T02:08:13;10.30;99.90
17039;DHT22;8636;55.750;13.202;2023-05-14T02:10:41;10.30;99.90
17039;DHT22;8636;55.750;13.202;2023-05-14T02:13:16;10.30;99.90
17039;DHT22;8636;55.750;13.202;2023-05-14T02:15:44;10.40;99.90
17039;DHT22;8636;55.750;13.202;2023-05-14T02:18:18;10.50;99.90
17039;DHT22;8636;55.750;13.202;2023-05-14T02:20:46;10.40;99.90
17039;DHT22;8636;55.750;13.202;2023-05-14T02:23:21;10.50;99.90
17039;DHT22;8636;55.750;13.202;2023-05-14T02:26:03;10.70;99.90
17039;DHT22;8636;55.750;13.202;2023-05-14T02:28:38;10.90;99.90
17039;DHT22;8636;55.750;13.202;2023-05-14T02:31:06;11.00;99.90
17039;DHT22;8636;55.750;13.202;2023-05-14T02:33:33;11.00;99.90
17039;DHT22;8636;55.750;13.202;2023-05-14T02:36:08;11.10;99.90
17039;DHT22;8636;55.750;13.202;2023-05-14T02:38:37;11.10;99.90
17039;DHT22;8636;55.750;13.202;2023-05-14T02:41:12;11.10;99.90
17039;DHT22;8636;55.750;13.202;2023-05-14T02:43:47;11.20;99.90
17039;DHT22;8636;55.750;13.202;2023-05-14T02:46:21;11.30;99.90
17039;DHT22;8636;55.750;13.202;2023-05-14T02:48:49;11.30;99.90
17039;DHT22;8636;55.750;13.202;2023-05-14T02:51:23;11.30;99.90
17039;DHT22;8636;55.750;13.202;2023-05-14T02:53:53;11.30;99.90
17039;DHT22;8636;55.750;13.202;2023-05-14T02:56:21;11.20;99.90
17039;DHT22;8636;55.750;13.202;2023-05-14T02:58:55;11.20;99.90
17039;DHT22;8636;55.750;13.202;2023-05-14T03:01:23;11.20;99.90
17039;DHT22;8636;55.750;13.202;2023-05-14T03:03:58;11.20;99.90
17039;DHT22;8636;55.750;13.202;2023-05-14T03:06:26;11.20;99.90
17039;DHT22;8636;55.750;13.202;2023-05-14T03:09:02;11.20;99.90
17039;DHT22;8636;55.750;13.202;2023-05-14T03:11:30;11.20;99.90
17039;DHT22;8636;55.750;13.202;2023-05-14T03:14:05;11.20;99.90
17039;DHT22;8636;55.750;13.202;2023-05-14T03:16:33;11.20;99.90
17039;DHT22;8636;55.750;13.202;2023-05-14T03:19:01;11.30;99.90
17039;DHT22;8636;55.750;13.202;2023-05-14T03:21:36;11.30;99.90
17039;DHT22;8636;55.750;13.202;2023-05-14T03:24:06;11.40;99.90
17039;DHT22;8636;55.750;13.202;2023-05-14T03:26:40;11.40;99.90
17039;DHT22;8636;55.750;13.202;2023-05-14T03:29:08;11.40;99.90
17039;DHT22;8636;55.750;13.202;2023-05-14T03:31:43;11.40;99.90
17039;DHT22;8636;55.750;13.202;2023-05-14T03:34:11;11.40;99.90
17039;DHT22;8636;55.750;13.202;2023-05-14T03:36:46;11.30;99.90
17039;DHT22;8636;55.750;13.202;2023-05-14T03:39:15;11.50;99.90
17039;DHT22;8636;55.750;13.202;2023-05-14T03:41:45;12.00;99.90
17039;DHT22;8636;55.750;13.202;2023-05-14T03:44:19;12.40;99.90
17039;DHT22;8636;55.750;13.202;2023-05-14T03:46:47;12.90;99.90
17039;DHT22;8636;55.750;13.202;2023-05-14T03:49:21;13.30;99.90
17039;DHT22;8636;55.750;13.202;2023-05-14T03:51:49;13.80;99.90
17039;DHT22;8636;55.750;13.202;2023-05-14T03:54:25;14.30;99.90
17039;DHT22;8636;55.750;13.202;2023-05-14T03:56:53;14.60;99.90
17039;DHT22;8636;55.750;13.202;2023-05-14T03:59:21;14.90;99.90
17039;DHT22;8636;55.750;13.202;2023-05-14T04:01:55;14.90;99.90
17039;DHT22;8636;55.750;13.202;2023-05-14T04:04:23;15.40;99.90
17039;DHT22;8636;55.750;13.202;2023-05-14T04:06:57;15.00;99.90
17039;DHT22;8636;55.750;13.202;2023-05-14T04:09:26;15.10;99.90
17039;DHT22;8636;55.750;13.202;2023-05-14T04:12:01;15.10;99.90
17039;DHT22;8636;55.750;13.202;2023-05-14T04:14:29;14.70;99.90
17039;DHT22;8636;55.750;13.202;2023-05-14T04:17:03;13.80;99.90
17039;DHT22;8636;55.750;13.202;2023-05-14T04:19:31;13.70;99.90
17039;DHT22;8636;55.750;13.202;2023-05-14T04:21:59;15.00;99.90
17039;DHT22;8636;55.750;13.202;2023-05-14T04:24:35;16.10;99.90
17039;DHT22;8636;55.750;13.202;2023-05-14T04:27:04;16.80;99.90
17039;DHT22;8636;55.750;13.202;2023-05-14T04:29:38;17.30;99.90
17039;DHT22;8636;55.750;13.202;2023-05-14T04:32:06;17.90;99.90
17039;DHT22;8636;55.750;13.202;2023-05-14T04:34:41;18.40;98.50
17039;DHT22;8636;55.750;13.202;2023-05-14T04:37:09;18.30;98.60
17039;DHT22;8636;55.750;13.202;2023-05-14T04:39:51;18.10;98.90
17039;DHT22;8636;55.750;13.202;2023-05-14T04:42:33;18.90;97.90
17039;DHT22;8636;55.750;13.202;2023-05-14T04:45:08;18.90;97.00
17039;DHT22;8636;55.750;13.202;2023-05-14T04:47:36;20.00;96.10
17039;DHT22;8636;55.750;13.202;2023-05-14T04:50:05;19.50;95.20
17039;DHT22;8636;55.750;13.202;2023-05-14T04:52:41;16.90;98.60
17039;DHT22;8636;55.750;13.202;2023-05-14T04:55:10;15.30;99.90
17039;DHT22;8636;55.750;13.202;2023-05-14T04:57:45;14.60;99.90
17039;DHT22;8636;55.750;13.202;2023-05-14T05:00:13;14.60;99.90
17039;DHT22;8636;55.750;13.202;2023-05-14T05:02:49;15.80;99.90
17039;DHT22;8636;55.750;13.202;2023-05-14T05:05:17;17.90;99.90
17039;DHT22;8636;55.750;13.202;2023-05-14T05:07:52;18.60;98.10
17039;DHT22;8636;55.750;13.202;2023-05-14T05:10:22;18.70;98.10
17039;DHT22;8636;55.750;13.202;2023-05-14T05:12:51;18.40;97.70
17039;DHT22;8636;55.750;13.202;2023-05-14T05:15:25;17.70;97.80
17039;DHT22;8636;55.750;13.202;2023-05-14T05:17:53;16.60;99.90
17039;DHT22;8636;55.750;13.202;2023-05-14T05:20:27;16.50;99.90
17039;DHT22;8636;55.750;13.202;2023-05-14T05:22:55;19.30;99.00
17039;DHT22;8636;55.750;13.202;2023-05-14T05:25:30;20.60;94.90
17039;DHT22;8636;55.750;13.202;2023-05-14T05:27:58;21.30;93.80
17039;DHT22;8636;55.750;13.202;2023-05-14T05:30:26;19.70;94.40
17039;DHT22;8636;55.750;13.202;2023-05-14T05:33:02;19.50;97.10
17039;DHT22;8636;55.750;13.202;2023-05-14T05:35:30;19.80;95.80
17039;DHT22;8636;55.750;13.202;2023-05-14T05:38:05;20.30;95.80
17039;DHT22;8636;55.750;13.202;2023-05-14T05:40:34;20.00;95.00
17039;DHT22;8636;55.750;13.202;2023-05-14T05:43:09;17.90;96.90
17039;DHT22;8636;55.750;13.202;2023-05-14T05:45:39;16.40;99.90
17039;DHT22;8636;55.750;13.202;2023-05-14T05:48:14;15.20;99.90
17039;DHT22;8636;55.750;13.202;2023-05-14T05:50:45;14.90;99.90
17039;DHT22;8636;55.750;13.202;2023-05-14T05:53:13;15.00;99.90
17039;DHT22;8636;55.750;13.202;2023-05-14T05:55:50;15.70;99.90
17039;DHT22;8636;55.750;13.202;2023-05-14T05:58:21;15.70;99.90
17039;DHT22;8636;55.750;13.202;2023-05-14T06:00:56;15.70;99.90
17039;DHT22;8636;55.750;13.202;2023-05-14T06:03:25;16.40;99.90
17039;DHT22;8636;55.750;13.202;2023-05-14T06:06:00;16.70;99.90
17039;DHT22;8636;55.750;13.202;2023-05-14T06:08:28;16.70;99.90
17039;DHT22;8636;55.750;13.202;2023-05-14T06:11:04;17.20;99.90
17039;DHT22;8636;55.750;13.202;2023-05-14T06:13:32;17.10;99.90
17039;DHT22;8636;55.750;13.202;2023-05-14T06:16:00;17.60;99.90
17039;DHT22;8636;55.750;13.202;2023-05-14T06:18:42;17.80;99.90
17039;DHT22;8636;55.750;13.202;2023-05-14T06:21:10;18.00;99.90
17039;DHT22;8636;55.750;13.202;2023-05-14T06:23:45;18.00;99.90
17039;DHT22;8636;55.750;13.202;2023-05-14T06:26:15;17.60;99.90
17039;DHT22;8636;55.750;13.202;2023-05-14T06:28:50;18.00;99.90
17039;DHT22;8636;55.750;13.202;2023-05-14T06:31:18;18.00;99.90
17039;DHT22;8636;55.750;13.202;2023-05-14T06:33:53;18.50;99.90
17039;DHT22;8636;55.750;13.202;2023-05-14T06:36:21;18.30;99.90
17039;DHT22;8636;55.750;13.202;2023-05-14T06:38:49;18.10;99.90
17039;DHT22;8636;55.750;13.202;2023-05-14T06:41:24;18.50;99.90
17039;DHT22;8636;55.750;13.202;2023-05-14T06:44:06;18.20;99.90
17039;DHT22;8636;55.750;13.202;2023-05-14T06:46:40;18.10;99.90
17039;DHT22;8636;55.750;13.202;2023-05-14T06:49:08;18.10;99.90
17039;DHT22;8636;55.750;13.202;2023-05-14T06:51:42;18.40;99.90
17039;DHT22;8636;55.750;13.202;2023-05-14T06:54:10;18.40;99.90
17039;DHT22;8636;55.750;13.202;2023-05-14T06:56:46;18.40;99.90
17039;DHT22;8636;55.750;13.202;2023-05-14T06:59:14;18.60;99.90
17039;DHT22;8636;55.750;13.202;2023-05-14T07:01:42;18.80;99.90
17039;DHT22;8636;55.750;13.202;2023-05-14T07:04:16;19.00;99.90
17039;DHT22;8636;55.750;13.202;2023-05-14T07:06:44;18.60;99.90
17039;DHT22;8636;55.750;13.202;2023-05-14T07:09:18;18.70;99.90
17039;DHT22;8636;55.750;13.202;2023-05-14T07:11:47;18.90;99.90
17039;DHT22;8636;55.750;13.202;2023-05-14T07:14:22;19.30;99.90
17039;DHT22;8636;55.750;13.202;2023-05-14T07:16:50;19.00;99.90
17039;DHT22;8636;55.750;13.202;2023-05-14T07:19:18;19.00;99.90
17039;DHT22;8636;55.750;13.202;2023-05-14T07:21:54;19.30;99.90
17039;DHT22;8636;55.750;13.202;2023-05-14T07:24:22;19.20;99.90
17039;DHT22;8636;55.750;13.202;2023-05-14T07:26:58;19.30;99.90
17039;DHT22;8636;55.750;13.202;2023-05-14T07:29:27;19.80;99.70
17039;DHT22;8636;55.750;13.202;2023-05-14T07:32:02;19.70;98.80
17039;DHT22;8636;55.750;13.202;2023-05-14T07:34:30;19.70;98.80
17039;DHT22;8636;55.750;13.202;2023-05-14T07:37:04;19.60;99.60
17039;DHT22;8636;55.750;13.202;2023-05-14T07:39:32;19.70;99.90
17039;DHT22;8636;55.750;13.202;2023-05-14T07:42:03;19.60;99.50
17039;DHT22;8636;55.750;13.202;2023-05-14T07:44:50;20.00;99.60
17039;DHT22;8636;55.750;13.202;2023-05-14T07:47:18;19.90;99.20
17039;DHT22;8636;55.750;13.202;2023-05-14T07:49:53;20.00;98.90
17039;DHT22;8636;55.750;13.202;2023-05-14T07:52:22;20.00;99.50
17039;DHT22;8636;55.750;13.202;2023-05-14T07:54:56;20.10;98.80
17039;DHT22;8636;55.750;13.202;2023-05-14T07:57:26;20.40;98.60
17039;DHT22;8636;55.750;13.202;2023-05-14T08:00:01;20.80;98.10
17039;DHT22;8636;55.750;13.202;2023-05-14T08:02:29;21.00;98.00
17039;DHT22;8636;55.750;13.202;2023-05-14T08:04:57;21.20;97.50
17039;DHT22;8636;55.750;13.202;2023-05-14T08:07:32;21.20;97.70
17039;DHT22;8636;55.750;13.202;2023-05-14T08:10:00;21.40;97.10
17039;DHT22;8636;55.750;13.202;2023-05-14T08:12:35;20.90;96.10
17039;DHT22;8636;55.750;13.202;2023-05-14T08:15:06;20.70;96.70
17039;DHT22;8636;55.750;13.202;2023-05-14T08:17:40;20.40;97.30
17039;DHT22;8636;55.750;13.202;2023-05-14T08:20:09;20.70;97.90
17039;DHT22;8636;55.750;13.202;2023-05-14T08:22:44;21.00;96.60
17039;DHT22;8636;55.750;13.202;2023-05-14T08:25:12;21.20;97.80
17039;DHT22;8636;55.750;13.202;2023-05-14T08:27:41;20.90;96.80
17039;DHT22;8636;55.750;13.202;2023-05-14T08:30:16;21.20;97.30
17039;DHT22;8636;55.750;13.202;2023-05-14T08:32:44;21.60;95.40
17039;DHT22;8636;55.750;13.202;2023-05-14T08:35:18;21.70;95.00
17039;DHT22;8636;55.750;13.202;2023-05-14T08:37:48;21.70;94.00
17039;DHT22;8636;55.750;13.202;2023-05-14T08:40:23;21.90;94.60
17039;DHT22;8636;55.750;13.202;2023-05-14T08:43:05;21.80;92.90
17039;DHT22;8636;55.750;13.202;2023-05-14T08:45:41;21.70;94.10
17039;DHT22;8636;55.750;13.202;2023-05-14T08:48:12;21.80;93.60
17039;DHT22;8636;55.750;13.202;2023-05-14T08:50:48;21.60;91.10
17039;DHT22;8636;55.750;13.202;2023-05-14T08:53:16;21.50;91.10
17039;DHT22;8636;55.750;13.202;2023-05-14T08:55:44;21.50;91.40
17039;DHT22;8636;55.750;13.202;2023-05-14T08:58:21;21.70;92.50
17039;DHT22;8636;55.750;13.202;2023-05-14T09:00:52;22.30;91.00
17039;DHT22;8636;55.750;13.202;2023-05-14T09:03:28;22.90;90.30
17039;DHT22;8636;55.750;13.202;2023-05-14T09:05:57;23.30;91.50
17039;DHT22;8636;55.750;13.202;2023-05-14T09:08:32;23.60;91.00
17039;DHT22;8636;55.750;13.202;2023-05-14T09:11:01;23.50;90.70
17039;DHT22;8636;55.750;13.202;2023-05-14T09:13:31;23.50;90.30
17039;DHT22;8636;55.750;13.202;2023-05-14T09:16:06;22.90;89.40
17039;DHT22;8636;55.750;13.202;2023-05-14T09:18:35;22.40;88.00
17039;DHT22;8636;55.750;13.202;2023-05-14T09:21:09;22.20;90.50
17039;DHT22;8636;55.750;13.202;2023-05-14T09:23:41;22.10;90.60
17039;DHT22;8636;55.750;13.202;2023-05-14T09:26:16;22.60;89.70
17039;DHT22;8636;55.750;13.202;2023-05-14T09:28:46;22.90;87.90
17039;DHT22;8636;55.750;13.202;2023-05-14T09:31:14;23.10;87.10
17039;DHT22;8636;55.750;13.202;2023-05-14T09:33:51;23.10;84.00
17039;DHT22;8636;55.750;13.202;2023-05-14T09:36:20;22.80;86.00
17039;DHT22;8636;55.750;13.202;2023-05-14T09:38:55;22.70;85.90
17039;DHT22;8636;55.750;13.202;2023-05-14T09:41:31;22.80;88.30
17039;DHT22;8636;55.750;13.202;2023-05-14T09:44:20;23.00;88.10
17039;DHT22;8636;55.750;13.202;2023-05-14T09:46:49;23.30;86.70
17039;DHT22;8636;55.750;13.202;2023-05-14T09:49:23;23.50;87.60
17039;DHT22;8636;55.750;13.202;2023-05-14T09:51:52;23.70;86.10
17039;DHT22;8636;55.750;13.202;2023-05-14T09:54:24;23.70;87.00
17039;DHT22;8636;55.750;13.202;2023-05-14T09:56:59;23.90;86.40
17039;DHT22;8636;55.750;13.202;2023-05-14T09:59:28;23.70;86.30
17039;DHT22;8636;55.750;13.202;2023-05-14T10:02:12;23.80;88.50
17039;DHT22;8636;55.750;13.202;2023-05-14T10:04:43;23.80;87.50
17039;DHT22;8636;55.750;13.202;2023-05-14T10:07:22;24.00;85.60
17039;DHT22;8636;55.750;13.202;2023-05-14T10:09:55;23.80;83.70
17039;DHT22;8636;55.750;13.202;2023-05-14T10:12:33;24.00;87.40
17039;DHT22;8636;55.750;13.202;2023-05-14T10:15:08;24.30;82.20
17039;DHT22;8636;55.750;13.202;2023-05-14T10:17:48;24.30;82.00
17039;DHT22;8636;55.750;13.202;2023-05-14T10:20:17;24.30;81.40
17039;DHT22;8636;55.750;13.202;2023-05-14T10:22:52;24.20;82.90
17039;DHT22;8636;55.750;13.202;2023-05-14T10:25:20;24.50;82.10
17039;DHT22;8636;55.750;13.202;2023-05-14T10:27:48;24.90;84.30
17039;DHT22;8636;55.750;13.202;2023-05-14T10:30:24;24.40;79.00
17039;DHT22;8636;55.750;13.202;2023-05-14T10:33:06;24.40;82.50
17039;DHT22;8636;55.750;13.202;2023-05-14T10:35:55;24.10;83.20
17039;DHT22;8636;55.750;13.202;2023-05-14T10:38:25;24.20;79.80
17039;DHT22;8636;55.750;13.202;2023-05-14T10:41:01;24.50;78.60
17039;DHT22;8636;55.750;13.202;2023-05-14T10:43:43;23.80;81.60
17039;DHT22;8636;55.750;13.202;2023-05-14T10:46:19;24.10;82.00
17039;DHT22;8636;55.750;13.202;2023-05-14T10:48:48;24.40;83.30
17039;DHT22;8636;55.750;13.202;2023-05-14T10:51:17;24.30;80.30
17039;DHT22;8636;55.750;13.202;2023-05-14T10:53:52;23.20;81.40
17039;DHT22;8636;55.750;13.202;2023-05-14T10:56:20;23.40;83.60
17039;DHT22;8636;55.750;13.202;2023-05-14T10:58:57;23.20;79.40
17039;DHT22;8636;55.750;13.202;2023-05-14T11:01:34;23.20;81.30
17039;DHT22;8636;55.750;13.202;2023-05-14T11:04:08;23.60;82.20
17039;DHT22;8636;55.750;13.202;2023-05-14T11:06:37;23.90;80.50
17039;DHT22;8636;55.750;13.202;2023-05-14T11:09:14;23.90;84.50
17039;DHT22;8636;55.750;13.202;2023-05-14T11:11:44;24.40;81.50
17039;DHT22;8636;55.750;13.202;2023-05-14T11:14:19;24.30;77.00
17039;DHT22;8636;55.750;13.202;2023-05-14T11:16:49;24.70;79.20
17039;DHT22;8636;55.750;13.202;2023-05-14T11:19:20;25.00;79.60
17039;DHT22;8636;55.750;13.202;2023-05-14T11:21:55;24.90;79.20
17039;DHT22;8636;55.750;13.202;2023-05-14T11:24:23;24.80;77.50
17039;DHT22;8636;55.750;13.202;2023-05-14T11:26:58;25.10;78.20
17039;DHT22;8636;55.750;13.202;2023-05-14T11:29:26;25.00;77.20
17039;DHT22;8636;55.750;13.202;2023-05-14T11:32:03;24.80;76.80
17039;DHT22;8636;55.750;13.202;2023-05-14T11:34:31;25.10;79.80
17039;DHT22;8636;55.750;13.202;2023-05-14T11:37:07;25.10;75.90
17039;DHT22;8636;55.750;13.202;2023-05-14T11:39:36;25.20;77.10
17039;DHT22;8636;55.750;13.202;2023-05-14T11:42:08;25.20;77.10
17039;DHT22;8636;55.750;13.202;2023-05-14T11:44:44;24.70;78.80
17039;DHT22;8636;55.750;13.202;2023-05-14T11:47:14;24.20;82.30
17039;DHT22;8636;55.750;13.202;2023-05-14T11:49:49;23.90;80.90
17039;DHT22;8636;55.750;13.202;2023-05-14T11:52:17;23.40;81.80
17039;DHT22;8636;55.750;13.202;2023-05-14T11:54:53;23.20;83.70
17039;DHT22;8636;55.750;13.202;2023-05-14T11:57:21;23.80;81.10
17039;DHT22;8636;55.750;13.202;2023-05-14T11:59:56;24.40;79.00
17039;DHT22;8636;55.750;13.202;2023-05-14T12:02:26;24.70;78.60
17039;DHT22;8636;55.750;13.202;2023-05-14T12:04:55;24.80;78.60
17039;DHT22;8636;55.750;13.202;2023-05-14T12:07:30;25.20;78.20
17039;DHT22;8636;55.750;13.202;2023-05-14T12:10:00;25.40;78.80
17039;DHT22;8636;55.750;13.202;2023-05-14T12:12:35;25.00;78.30
17039;DHT22;8636;55.750;13.202;2023-05-14T12:15:10;25.30;79.50
17039;DHT22;8636;55.750;13.202;2023-05-14T12:17:50;25.40;78.60
17039;DHT22;8636;55.750;13.202;2023-05-14T12:20:18;25.60;78.00
17039;DHT22;8636;55.750;13.202;2023-05-14T12:22:53;25.70;80.80
17039;DHT22;8636;55.750;13.202;2023-05-14T12:25:20;25.60;78.40
17039;DHT22;8636;55.750;13.202;2023-05-14T12:27:48;25.40;74.90
17039;DHT22;8636;55.750;13.202;2023-05-14T12:30:23;25.60;80.20
17039;DHT22;8636;55.750;13.202;2023-05-14T12:32:52;25.60;87.50
17039;DHT22;8636;55.750;13.202;2023-05-14T12:35:27;25.60;79.60
17039;DHT22;8636;55.750;13.202;2023-05-14T12:37:55;25.00;79.30
17039;DHT22;8636;55.750;13.202;2023-05-14T12:40:36;25.30;79.60
17039;DHT22;8636;55.750;13.202;2023-05-14T12:43:18;25.10;77.00
17039;DHT22;8636;55.750;13.202;2023-05-14T12:45:53;25.00;78.30
17039;DHT22;8636;55.750;13.202;2023-05-14T12:48:22;24.50;76.80
17039;DHT22;8636;55.750;13.202;2023-05-14T12:50:50;25.00;78.90
17039;DHT22;8636;55.750;13.202;2023-05-14T12:53:25;24.90;78.50
17039;DHT22;8636;55.750;13.202;2023-05-14T12:55:53;24.70;74.20
17039;DHT22;8636;55.750;13.202;2023-05-14T12:58:28;24.80;78.80
17039;DHT22;8636;55.750;13.202;2023-05-14T13:00:56;25.10;79.30
17039;DHT22;8636;55.750;13.202;2023-05-14T13:03:31;25.00;78.70
17039;DHT22;8636;55.750;13.202;2023-05-14T13:05:59;24.90;76.60
17039;DHT22;8636;55.750;13.202;2023-05-14T13:08:27;25.00;76.50
17039;DHT22;8636;55.750;13.202;2023-05-14T13:11:02;24.70;73.70
17039;DHT22;8636;55.750;13.202;2023-05-14T13:13:30;24.50;74.70
17039;DHT22;8636;55.750;13.202;2023-05-14T13:16:05;24.30;77.90
17039;DHT22;8636;55.750;13.202;2023-05-14T13:18:34;24.30;76.20
17039;DHT22;8636;55.750;13.202;2023-05-14T13:21:08;24.30;81.50
17039;DHT22;8636;55.750;13.202;2023-05-14T13:23:36;24.90;79.20
17039;DHT22;8636;55.750;13.202;2023-05-14T13:26:04;24.80;74.90
17039;DHT22;8636;55.750;13.202;2023-05-14T13:28:38;24.80;75.60
17039;DHT22;8636;55.750;13.202;2023-05-14T13:31:07;24.60;74.30
17039;DHT22;8636;55.750;13.202;2023-05-14T13:33:44;24.60;72.80
17039;DHT22;8636;55.750;13.202;2023-05-14T13:36:13;24.70;74.40
17039;DHT22;8636;55.750;13.202;2023-05-14T13:38:48;24.40;75.60
17039;DHT22;8636;55.750;13.202;2023-05-14T13:41:24;24.60;74.50
17039;DHT22;8636;55.750;13.202;2023-05-14T13:43:58;24.50;74.30
17039;DHT22;8636;55.750;13.202;2023-05-14T13:46:32;24.60;73.00
17039;DHT22;8636;55.750;13.202;2023-05-14T13:49:08;24.60;74.40
17039;DHT22;8636;55.750;13.202;2023-05-14T13:51:36;24.80;75.40
17039;DHT22;8636;55.750;13.202;2023-05-14T13:54:04;24.80;72.10
17039;DHT22;8636;55.750;13.202;2023-05-14T13:56:40;24.70;75.80
17039;DHT22;8636;55.750;13.202;2023-05-14T13:59:08;24.40;72.10
17039;DHT22;8636;55.750;13.202;2023-05-14T14:01:43;24.20;73.80
17039;DHT22;8636;55.750;13.202;2023-05-14T14:04:12;23.80;75.70
17039;DHT22;8636;55.750;13.202;2023-05-14T14:06:48;23.70;75.70
17039;DHT22;8636;55.750;13.202;2023-05-14T14:09:16;23.60;74.10
17039;DHT22;8636;55.750;13.202;2023-05-14T14:11:50;23.60;74.60
17039;DHT22;8636;55.750;13.202;2023-05-14T14:14:18;23.80;74.70
17039;DHT22;8636;55.750;13.202;2023-05-14T14:16:46;24.00;75.30
17039;DHT22;8636;55.750;13.202;2023-05-14T14:19:22;24.30;75.60
17039;DHT22;8636;55.750;13.202;2023-05-14T14:21:50;24.20;75.10
17039;DHT22;8636;55.750;13.202;2023-05-14T14:24:24;23.70;78.10
17039;DHT22;8636;55.750;13.202;2023-05-14T14:26:52;23.10;76.00
17039;DHT22;8636;55.750;13.202;2023-05-14T14:29:26;22.80;76.70
17039;DHT22;8636;55.750;13.202;2023-05-14T14:31:56;22.80;77.10
17039;DHT22;8636;55.750;13.202;2023-05-14T14:34:26;22.60;76.20
17039;DHT22;8636;55.750;13.202;2023-05-14T14:37:00;22.30;76.60
17039;DHT22;8636;55.750;13.202;2023-05-14T14:39:35;22.00;77.10
17039;DHT22;8636;55.750;13.202;2023-05-14T14:42:10;21.90;76.90
17039;DHT22;8636;55.750;13.202;2023-05-14T14:44:51;21.70;76.60
17039;DHT22;8636;55.750;13.202;2023-05-14T14:47:20;22.00;78.50
17039;DHT22;8636;55.750;13.202;2023-05-14T14:49:49;22.50;81.60
17039;DHT22;8636;55.750;13.202;2023-05-14T14:52:25;23.00;77.20
17039;DHT22;8636;55.750;13.202;2023-05-14T14:54:53;22.60;77.50
17039;DHT22;8636;55.750;13.202;2023-05-14T14:57:28;22.20;79.80
17039;DHT22;8636;55.750;13.202;2023-05-14T14:59:56;22.00;80.70
17039;DHT22;8636;55.750;13.202;2023-05-14T15:02:30;22.00;79.40
17039;DHT22;8636;55.750;13.202;2023-05-14T15:04:59;22.30;79.80
17039;DHT22;8636;55.750;13.202;2023-05-14T15:07:27;22.60;77.90
17039;DHT22;8636;55.750;13.202;2023-05-14T15:10:05;22.50;76.00
17039;DHT22;8636;55.750;13.202;2023-05-14T15:12:33;22.30;78.70
17039;DHT22;8636;55.750;13.202;2023-05-14T15:15:08;22.00;78.60
17039;DHT22;8636;55.750;13.202;2023-05-14T15:17:36;21.90;79.10
17039;DHT22;8636;55.750;13.202;2023-05-14T15:20:13;22.20;79.70
17039;DHT22;8636;55.750;13.202;2023-05-14T15:22:41;22.10;79.20
17039;DHT22;8636;55.750;13.202;2023-05-14T15:25:09;21.90;77.10
17039;DHT22;8636;55.750;13.202;2023-05-14T15:27:43;21.90;77.30
17039;DHT22;8636;55.750;13.202;2023-05-14T15:30:12;21.80;76.60
17039;DHT22;8636;55.750;13.202;2023-05-14T15:32:47;21.90;78.70
17039;DHT22;8636;55.750;13.202;2023-05-14T15:35:16;21.90;79.20
17039;DHT22;8636;55.750;13.202;2023-05-14T15:37:54;22.00;79.40
17039;DHT22;8636;55.750;13.202;2023-05-14T15:40:22;22.10;79.50
17039;DHT22;8636;55.750;13.202;2023-05-14T15:43:03;21.90;78.10
17039;DHT22;8636;55.750;13.202;2023-05-14T15:45:31;21.80;79.20
17039;DHT22;8636;55.750;13.202;2023-05-14T15:48:05;21.80;80.80
17039;DHT22;8636;55.750;13.202;2023-05-14T15:50:35;21.60;80.70
17039;DHT22;8636;55.750;13.202;2023-05-14T15:53:04;21.60;81.20
17039;DHT22;8636;55.750;13.202;2023-05-14T15:55:38;21.60;81.00
17039;DHT22;8636;55.750;13.202;2023-05-14T15:58:06;21.30;82.00
17039;DHT22;8636;55.750;13.202;2023-05-14T16:00:40;21.20;81.70
17039;DHT22;8636;55.750;13.202;2023-05-14T16:03:08;21.20;83.50